createdAt,value
2019-02-18T00:00:21.095Z,100919.33
2019-02-18T00:02:49.603Z,100917.22
2019-02-18T00:05:18.065Z,100917.55
2019-02-18T00:07:46.493Z,100920.97
2019-02-18T00:10:14.930Z,100920.45
2019-02-18T00:12:43.456Z,100912.83
2019-02-18T00:15:11.886Z,100912.78
2019-02-18T00:17:40.424Z,100915.22
2019-02-18T00:20:08.902Z,100913.11
2019-02-18T00:22:37.364Z,100915.27
2019-02-18T00:25:06.046Z,100909.36
2019-02-18T00:27:34.512Z,100908.42
2019-02-18T00:30:03.318Z,100908.75
2019-02-18T00:32:31.740Z,100906.19
2019-02-18T00:35:00.290Z,100910.02
2019-02-18T00:37:28.748Z,100902.30
2019-02-18T00:39:57.162Z,100908.11
2019-02-18T00:42:25.619Z,100906.42
2019-02-18T00:44:54.041Z,100911.94
2019-02-18T00:47:22.499Z,100902.16
2019-02-18T00:49:50.999Z,100906.17
2019-02-18T00:52:19.446Z,100908.23
2019-02-18T00:54:47.891Z,100903.78
2019-02-18T00:57:16.325Z,100909.20
2019-02-18T00:59:44.753Z,100904.25
2019-02-18T01:02:13.734Z,100906.36
2019-02-18T01:04:42.229Z,100907.16
2019-02-18T01:07:10.789Z,100904.20
2019-02-18T01:09:39.233Z,100906.27
2019-02-18T01:12:07.678Z,100904.48
2019-02-18T01:14:36.121Z,100901.89
2019-02-18T01:17:04.576Z,100902.53
2019-02-18T01:19:33.005Z,100905.55
2019-02-18T01:22:01.418Z,100903.91
2019-02-18T01:24:29.882Z,100908.86
2019-02-18T01:26:58.358Z,100910.60
2019-02-18T01:29:26.791Z,100910.75
2019-02-18T01:31:55.272Z,100901.64
2019-02-18T01:34:23.692Z,100906.23
2019-02-18T01:36:52.170Z,100899.97
2019-02-18T01:39:20.643Z,100900.77
2019-02-18T01:41:49.153Z,100897.70
2019-02-18T01:44:17.643Z,100895.55
2019-02-18T01:46:46.110Z,100890.39
2019-02-18T01:49:14.549Z,100892.03
2019-02-18T01:51:43.029Z,100887.93
2019-02-18T01:54:11.520Z,100887.87
2019-02-18T01:56:39.954Z,100887.41
2019-02-18T01:59:08.489Z,100888.25
2019-02-18T02:01:36.948Z,100881.94
2019-02-18T02:04:05.394Z,100885.99
2019-02-18T02:06:33.847Z,100883.08
2019-02-18T02:09:02.332Z,100882.56
2019-02-18T02:11:30.792Z,100878.68
2019-02-18T02:13:59.196Z,100876.52
2019-02-18T02:16:27.650Z,100875.16
2019-02-18T02:18:56.162Z,100873.11
2019-02-18T02:21:24.608Z,100871.42
2019-02-18T02:23:53.065Z,100864.02
2019-02-18T02:26:21.521Z,100872.84
2019-02-18T02:28:49.973Z,100874.83
2019-02-18T02:31:18.457Z,100869.00
2019-02-18T02:33:46.938Z,100867.27
2019-02-18T02:36:15.399Z,100865.62
2019-02-18T02:38:43.841Z,100860.58
2019-02-18T02:41:12.252Z,100863.84
2019-02-18T02:43:40.715Z,100867.52
2019-02-18T02:46:09.167Z,100866.27
2019-02-18T02:48:37.612Z,100860.48
2019-02-18T02:51:06.055Z,100852.55
2019-02-18T02:53:34.495Z,100856.70
2019-02-18T02:56:02.932Z,100861.22
2019-02-18T02:58:31.426Z,100865.79
2019-02-18T03:00:59.849Z,100861.41
2019-02-18T03:03:28.297Z,100865.08
2019-02-18T03:05:56.779Z,100867.67
2019-02-18T03:08:25.293Z,100862.27
2019-02-18T03:10:53.798Z,100861.53
2019-02-18T03:13:22.253Z,100858.63
2019-02-18T03:15:50.676Z,100861.43
2019-02-18T03:18:19.141Z,100857.70
2019-02-18T03:20:47.553Z,100861.48
2019-02-18T03:23:16.015Z,100860.27
2019-02-18T03:25:46.006Z,100862.78
2019-02-18T03:28:36.965Z,100862.74
2019-02-18T03:31:10.994Z,100860.16
2019-02-18T03:33:48.192Z,100859.27
2019-02-18T03:36:16.642Z,100856.32
2019-02-18T03:38:45.095Z,100857.05
2019-02-18T03:41:13.531Z,100859.16
2019-02-18T03:43:42.037Z,100859.21
2019-02-18T03:46:10.494Z,100860.79
2019-02-18T03:48:38.971Z,100863.30
2019-02-18T03:51:07.427Z,100862.47
2019-02-18T03:53:35.864Z,100863.86
2019-02-18T03:56:04.356Z,100868.38
2019-02-18T03:58:32.797Z,100867.11
2019-02-18T04:01:01.341Z,100866.39
2019-02-18T04:03:29.765Z,100864.59
2019-02-18T04:05:58.206Z,100865.48
2019-02-18T04:08:26.647Z,100870.89
2019-02-18T04:10:55.098Z,100867.96
2019-02-18T04:13:23.494Z,100864.66
2019-02-18T04:15:51.967Z,100859.55
2019-02-18T04:18:20.411Z,100864.59
2019-02-18T04:20:48.833Z,100868.86
2019-02-18T04:23:17.393Z,100862.97
2019-02-18T04:25:45.818Z,100867.06
2019-02-18T04:28:14.248Z,100865.32
2019-02-18T04:30:42.735Z,100865.39
2019-02-18T04:33:11.136Z,100867.48
2019-02-18T04:35:39.559Z,100870.36
2019-02-18T04:38:08.022Z,100870.30
2019-02-18T04:40:36.504Z,100875.66
2019-02-18T04:43:05.050Z,100879.92
2019-02-18T04:45:33.564Z,100872.28
2019-02-18T04:48:01.964Z,100875.97
2019-02-18T04:50:30.755Z,100872.13
2019-02-18T04:52:59.177Z,100871.77
2019-02-18T04:55:27.639Z,100870.48
2019-02-18T04:57:56.122Z,100875.55
2019-02-18T05:00:24.646Z,100870.92
2019-02-18T05:02:53.090Z,100870.39
2019-02-18T05:05:21.621Z,100870.85
2019-02-18T05:07:50.076Z,100876.80
2019-02-18T05:10:18.531Z,100870.32
2019-02-18T05:12:46.958Z,100872.84
2019-02-18T05:15:15.384Z,100870.73
2019-02-18T05:17:43.835Z,100876.93
2019-02-18T05:20:12.402Z,100870.56
2019-02-18T05:22:40.855Z,100873.39
2019-02-18T05:25:12.823Z,100872.55
2019-02-18T05:27:41.093Z,100871.23
2019-02-18T05:30:11.663Z,100866.14
2019-02-18T05:32:40.087Z,100869.54
2019-02-18T05:35:08.694Z,100867.45
2019-02-18T05:37:37.155Z,100865.34
2019-02-18T05:40:08.003Z,100860.30
2019-02-18T05:42:36.470Z,100869.61
2019-02-18T05:45:07.450Z,100868.34
2019-02-18T05:47:35.877Z,100866.66
2019-02-18T05:50:05.181Z,100862.89
2019-02-18T05:52:33.604Z,100864.56
2019-02-18T05:55:02.058Z,100866.19
2019-02-18T05:57:30.482Z,100864.13
2019-02-18T05:59:58.992Z,100870.87
2019-02-18T06:02:27.456Z,100863.72
2019-02-18T06:04:55.885Z,100869.17
2019-02-18T06:07:24.312Z,100874.75
2019-02-18T06:09:52.759Z,100872.13
2019-02-18T06:12:21.199Z,100875.02
2019-02-18T06:14:49.625Z,100874.16
2019-02-18T06:17:18.066Z,100875.38
2019-02-18T06:19:46.507Z,100877.53
2019-02-18T06:22:14.952Z,100870.87
2019-02-18T06:24:43.403Z,100873.80
2019-02-18T06:27:11.861Z,100873.03
2019-02-18T06:29:40.267Z,100870.56
2019-02-18T06:32:08.722Z,100872.67
2019-02-18T06:34:37.162Z,100872.25
2019-02-18T06:37:05.605Z,100877.78
2019-02-18T06:39:41.255Z,100874.77
2019-02-18T06:42:04.198Z,100871.45
2019-02-18T06:44:34.265Z,100873.20
2019-02-18T06:47:04.370Z,100880.04
2019-02-18T06:49:32.779Z,100883.88
2019-02-18T06:52:01.251Z,100881.01
2019-02-18T06:54:29.697Z,100886.16
2019-02-18T06:57:11.986Z,100887.05
2019-02-18T06:59:42.066Z,100887.95
2019-02-18T07:02:12.124Z,100889.33
2019-02-18T07:04:45.646Z,100896.19
2019-02-18T07:07:15.801Z,100898.33
2019-02-18T07:10:01.171Z,100892.73
2019-02-18T07:12:31.314Z,100896.33
2019-02-18T07:14:59.758Z,100896.34
2019-02-18T07:17:28.241Z,100900.52
2019-02-18T07:19:56.719Z,100901.34
2019-02-18T07:22:25.171Z,100904.87
2019-02-18T07:24:53.591Z,100902.25
2019-02-18T07:27:22.019Z,100902.27
2019-02-18T07:29:50.475Z,100901.14
2019-02-18T07:32:18.934Z,100903.45
2019-02-18T07:34:47.370Z,100901.86
2019-02-18T07:37:15.799Z,100899.74
2019-02-18T07:39:44.226Z,100904.12
2019-02-18T07:42:12.723Z,100900.15
2019-02-18T07:44:41.145Z,100906.77
2019-02-18T07:47:09.594Z,100906.61
2019-02-18T07:49:38.024Z,100901.09
2019-02-18T07:52:06.536Z,100896.11
2019-02-18T07:54:34.991Z,100892.53
2019-02-18T07:57:03.453Z,100893.96
2019-02-18T07:59:31.906Z,100898.31
2019-02-18T08:02:00.347Z,100898.61
2019-02-18T08:04:28.784Z,100901.26
2019-02-18T08:06:57.241Z,100906.05
2019-02-18T08:09:25.766Z,100896.08
2019-02-18T08:11:54.215Z,100892.88
2019-02-18T08:14:22.740Z,100895.46
2019-02-18T08:16:51.176Z,100894.21
2019-02-18T08:19:20.382Z,100892.88
2019-02-18T08:21:48.799Z,100892.70
2019-02-18T08:24:17.282Z,100890.07
2019-02-18T08:26:45.761Z,100885.27
2019-02-18T08:29:14.283Z,100889.97
2019-02-18T08:31:42.735Z,100887.06
2019-02-18T08:34:11.223Z,100885.45
2019-02-18T08:36:39.676Z,100887.85
2019-02-18T08:39:08.163Z,100889.80
2019-02-18T08:41:36.611Z,100884.97
2019-02-18T08:44:05.132Z,100889.30
2019-02-18T08:46:33.645Z,100886.73
2019-02-18T08:49:02.052Z,100883.42
2019-02-18T08:51:30.537Z,100890.61
2019-02-18T08:53:58.970Z,100886.44
2019-02-18T08:56:27.426Z,100884.03
2019-02-18T08:58:55.953Z,100888.23
2019-02-18T09:01:24.356Z,100889.75
2019-02-18T09:03:52.827Z,100884.81
2019-02-18T09:06:21.280Z,100879.28
2019-02-18T09:08:49.736Z,100877.80
2019-02-18T09:11:18.179Z,100873.69
2019-02-18T09:13:46.621Z,100877.25
2019-02-18T09:16:15.077Z,100875.31
2019-02-18T09:18:43.518Z,100875.27
2019-02-18T09:21:12.024Z,100874.77
2019-02-18T09:23:44.800Z,100875.36
2019-02-18T09:26:14.889Z,100874.09
2019-02-18T09:28:43.351Z,100871.02
2019-02-18T09:31:11.793Z,100873.30
2019-02-18T09:33:40.263Z,100872.62
2019-02-18T09:36:08.684Z,100868.30
2019-02-18T09:38:37.180Z,100870.75
2019-02-18T09:41:05.612Z,100873.27
2019-02-18T09:43:34.032Z,100876.12
2019-02-18T09:46:02.563Z,100875.67
2019-02-18T09:48:30.983Z,100875.52
2019-02-18T09:51:00.259Z,100877.13
2019-02-18T09:53:28.797Z,100876.14
2019-02-18T09:55:57.222Z,100878.78
2019-02-18T09:58:25.685Z,100878.09
2019-02-18T10:00:54.101Z,100874.77
2019-02-18T10:03:31.618Z,100867.52
2019-02-18T10:05:52.720Z,100867.61
2019-02-18T10:08:21.151Z,100866.95
2019-02-18T10:10:55.770Z,100863.63
2019-02-18T10:13:19.810Z,100859.41
2019-02-18T10:15:48.295Z,100848.73
2019-02-18T10:18:16.773Z,100849.50
2019-02-18T10:20:45.196Z,100844.20
2019-02-18T10:23:13.616Z,100844.08
2019-02-18T10:25:42.068Z,100843.66
2019-02-18T10:28:10.486Z,100833.81
2019-02-18T10:30:39.008Z,100842.25
2019-02-18T10:33:07.502Z,100839.11
2019-02-18T10:35:36.004Z,100833.06
2019-02-18T10:38:04.485Z,100828.22
2019-02-18T10:40:32.887Z,100831.13
2019-02-18T10:43:01.341Z,100822.89
2019-02-18T10:45:29.787Z,100820.83
2019-02-18T10:47:58.215Z,100814.06
2019-02-18T10:50:26.674Z,100811.25
2019-02-18T10:52:55.146Z,100814.06
2019-02-18T10:55:23.652Z,100810.59
2019-02-18T10:57:52.120Z,100812.03
2019-02-18T11:00:20.546Z,100797.24
2019-02-18T11:02:49.058Z,100798.06
2019-02-18T11:05:17.511Z,100795.21
2019-02-18T11:07:45.941Z,100796.59
2019-02-18T11:10:15.950Z,100797.72
2019-02-18T11:12:44.465Z,100793.33
2019-02-18T11:15:14.804Z,100783.73
2019-02-18T11:17:43.731Z,100786.31
2019-02-18T11:20:13.372Z,100783.03
2019-02-18T11:22:41.785Z,100781.13
2019-02-18T11:25:15.460Z,100779.72
2019-02-18T11:27:43.932Z,100780.23
2019-02-18T11:30:16.991Z,100777.31
2019-02-18T11:32:45.412Z,100769.84
2019-02-18T11:35:13.953Z,100770.16
2019-02-18T11:37:42.409Z,100761.19
2019-02-18T11:40:16.071Z,100757.12
2019-02-18T11:42:44.516Z,100754.90
2019-02-18T11:45:15.265Z,100745.12
2019-02-18T11:47:43.869Z,100755.52
2019-02-18T11:50:14.515Z,100748.42
2019-02-18T11:52:42.934Z,100745.61
2019-02-18T11:55:15.176Z,100741.17
2019-02-18T11:57:44.140Z,100737.98
2019-02-18T12:00:16.934Z,100733.06
2019-02-18T12:02:45.439Z,100733.06
2019-02-18T12:05:14.136Z,100730.94
2019-02-18T12:07:42.671Z,100728.30
2019-02-18T12:10:14.561Z,100727.64
2019-02-18T12:12:43.278Z,100722.83
2019-02-18T12:15:14.099Z,100720.98
2019-02-18T12:17:42.534Z,100712.44
2019-02-18T12:20:17.351Z,100710.01
2019-02-18T12:22:45.821Z,100705.45
2019-02-18T12:25:14.230Z,100703.02
2019-02-18T12:27:43.066Z,100704.38
2019-02-18T12:30:18.705Z,100703.19
2019-02-18T12:32:47.121Z,100700.03
2019-02-18T12:35:15.643Z,100693.21
2019-02-18T12:37:44.073Z,100686.98
2019-02-18T12:40:14.457Z,100682.40
2019-02-18T12:42:42.997Z,100686.42
2019-02-18T12:45:13.308Z,100677.61
2019-02-18T12:47:41.922Z,100675.66
2019-02-18T12:50:11.900Z,100671.68
2019-02-18T12:52:40.389Z,100675.44
2019-02-18T12:55:10.548Z,100667.64
2019-02-18T12:57:39.648Z,100667.25
2019-02-18T13:00:15.807Z,100665.06
2019-02-18T13:02:45.268Z,100659.26
2019-02-18T13:05:14.193Z,100657.63
2019-02-18T13:07:42.695Z,100645.53
2019-02-18T13:10:12.029Z,100646.94
2019-02-18T13:12:41.098Z,100646.22
2019-02-18T13:15:14.721Z,100642.47
2019-02-18T13:17:43.172Z,100637.50
2019-02-18T13:20:11.649Z,100637.01
2019-02-18T13:22:40.226Z,100625.92
2019-02-18T13:25:10.081Z,100626.42
2019-02-18T13:27:38.541Z,100619.48
2019-02-18T13:30:12.732Z,100620.12
2019-02-18T13:32:41.150Z,100615.50
2019-02-18T13:35:09.673Z,100617.54
2019-02-18T13:37:38.151Z,100610.08
2019-02-18T13:40:07.716Z,100609.75
2019-02-18T13:42:36.208Z,100607.66
2019-02-18T13:45:07.554Z,100607.77
2019-02-18T13:47:36.865Z,100602.72
2019-02-18T13:50:11.065Z,100601.02
2019-02-18T13:52:39.552Z,100596.28
2019-02-18T13:55:18.883Z,100591.00
2019-02-18T13:57:47.394Z,100590.47
2019-02-18T14:00:22.718Z,100590.61
2019-02-18T14:02:51.607Z,100586.64
2019-02-18T14:05:21.679Z,100589.93
2019-02-18T14:07:50.205Z,100584.41
2019-02-18T14:10:19.989Z,100583.08
2019-02-18T14:12:48.550Z,100580.08
2019-02-18T14:15:17.556Z,100582.58
2019-02-18T14:17:46.077Z,100578.33
2019-02-18T14:20:16.027Z,100569.63
2019-02-18T14:22:44.471Z,100580.27
2019-02-18T14:25:14.829Z,100577.09
2019-02-18T14:27:43.306Z,100580.40
2019-02-18T14:30:14.694Z,100572.74
2019-02-18T14:32:43.341Z,100577.25
2019-02-18T14:35:12.039Z,100577.62
2019-02-18T14:37:40.484Z,100576.30
2019-02-18T14:40:11.572Z,100572.37
2019-02-18T14:42:40.153Z,100577.82
2019-02-18T14:45:09.540Z,100578.12
2019-02-18T14:47:38.087Z,100570.58
2019-02-18T14:50:08.824Z,100573.77
2019-02-18T14:52:37.321Z,100565.73
2019-02-18T14:55:08.582Z,100556.38
2019-02-18T14:57:37.170Z,100556.53
2019-02-18T15:00:15.913Z,100558.46
2019-02-18T15:02:44.352Z,100555.80
2019-02-18T15:05:12.806Z,100556.52
2019-02-18T15:07:41.675Z,100554.66
2019-02-18T15:10:11.081Z,100548.83
2019-02-18T15:12:39.567Z,100546.36
2019-02-18T15:15:08.220Z,100538.11
2019-02-18T15:17:36.678Z,100543.56
2019-02-18T15:20:07.263Z,100542.16
2019-02-18T15:22:36.279Z,100540.96
2019-02-18T15:25:07.269Z,100535.02
2019-02-18T15:27:35.756Z,100531.64
2019-02-18T15:30:08.231Z,100532.00
2019-02-18T15:32:36.662Z,100524.52
2019-02-18T15:35:05.469Z,100528.08
2019-02-18T15:37:34.641Z,100515.51
2019-02-18T15:40:04.215Z,100518.87
2019-02-18T15:42:32.720Z,100520.66
2019-02-18T15:45:01.252Z,100519.48
2019-02-18T15:47:29.769Z,100516.35
2019-02-18T15:49:58.299Z,100511.31
2019-02-18T15:52:27.278Z,100514.87
2019-02-18T15:54:55.762Z,100511.01
2019-02-18T15:57:24.206Z,100504.13
2019-02-18T15:59:52.631Z,100502.14
2019-02-18T16:02:22.626Z,100498.19
2019-02-18T16:04:51.085Z,100497.53
2019-02-18T16:07:19.509Z,100492.21
2019-02-18T16:09:47.954Z,100486.12
2019-02-18T16:12:16.454Z,100497.34
2019-02-18T16:14:44.907Z,100495.27
2019-02-18T16:17:13.337Z,100486.69
2019-02-18T16:19:41.824Z,100488.53
2019-02-18T16:22:10.571Z,100484.42
2019-02-18T16:24:39.540Z,100482.27
2019-02-18T16:27:07.978Z,100485.63
2019-02-18T16:29:36.443Z,100484.65
2019-02-18T16:32:05.024Z,100482.86
2019-02-18T16:34:33.469Z,100479.52
2019-02-18T16:37:02.390Z,100479.12
2019-02-18T16:39:30.832Z,100478.80
2019-02-18T16:41:59.925Z,100479.30
2019-02-18T16:44:28.339Z,100471.06
2019-02-18T16:46:56.777Z,100474.20
2019-02-18T16:49:25.216Z,100472.67
2019-02-18T16:51:53.664Z,100470.64
2019-02-18T16:54:22.218Z,100472.20
2019-02-18T16:56:50.655Z,100474.30
2019-02-18T16:59:19.058Z,100471.56
2019-02-18T17:01:48.460Z,100471.21
2019-02-18T17:04:16.876Z,100476.50
2019-02-18T17:06:45.325Z,100475.89
2019-02-18T17:09:13.911Z,100475.09
2019-02-18T17:11:42.370Z,100471.50
2019-02-18T17:14:10.883Z,100474.69
2019-02-18T17:16:39.338Z,100470.09
2019-02-18T17:19:07.817Z,100476.66
2019-02-18T17:21:36.280Z,100474.34
2019-02-18T17:24:05.591Z,100470.48
2019-02-18T17:26:34.846Z,100475.97
2019-02-18T17:29:03.380Z,100468.42
2019-02-18T17:31:31.809Z,100465.48
2019-02-18T17:34:00.267Z,100455.41
2019-02-18T17:36:28.762Z,100455.00
2019-02-18T17:38:57.143Z,100447.50
2019-02-18T17:41:25.574Z,100449.47
2019-02-18T17:43:54.778Z,100445.54
2019-02-18T17:46:23.294Z,100438.09
2019-02-18T17:48:51.732Z,100444.27
2019-02-18T17:51:20.174Z,100441.67
2019-02-18T17:53:48.633Z,100438.23
2019-02-18T17:56:18.282Z,100435.20
2019-02-18T17:58:47.259Z,100432.44
2019-02-18T18:01:15.690Z,100431.77
2019-02-18T18:03:44.191Z,100431.31
2019-02-18T18:06:12.620Z,100422.28
2019-02-18T18:08:41.121Z,100428.55
2019-02-18T18:11:09.555Z,100426.04
2019-02-18T18:13:38.028Z,100424.38
2019-02-18T18:16:06.541Z,100420.50
2019-02-18T18:18:34.964Z,100422.38
2019-02-18T18:21:04.007Z,100411.48
2019-02-18T18:23:32.468Z,100408.77
2019-02-18T18:26:00.895Z,100405.07
2019-02-18T18:28:29.348Z,100407.36
2019-02-18T18:30:58.243Z,100403.09
2019-02-18T18:33:26.717Z,100394.44
2019-02-18T18:35:55.130Z,100398.19
2019-02-18T18:38:23.558Z,100396.19
2019-02-18T18:40:52.009Z,100400.97
2019-02-18T18:43:20.422Z,100397.60
2019-02-18T18:45:48.877Z,100393.06
2019-02-18T18:48:17.327Z,100399.84
2019-02-18T18:50:45.766Z,100394.73
2019-02-18T18:53:14.262Z,100390.52
2019-02-18T18:55:42.754Z,100390.59
2019-02-18T18:58:11.173Z,100385.46
2019-02-18T19:00:39.661Z,100385.72
2019-02-18T19:03:08.147Z,100391.08
2019-02-18T19:05:36.581Z,100391.95
2019-02-18T19:08:05.097Z,100385.59
2019-02-18T19:10:34.354Z,100381.92
2019-02-18T19:13:02.785Z,100383.69
2019-02-18T19:15:31.274Z,100379.91
2019-02-18T19:17:59.747Z,100386.67
2019-02-18T19:20:28.244Z,100383.01
2019-02-18T19:22:56.676Z,100386.48
2019-02-18T19:25:25.179Z,100387.23
2019-02-18T19:27:53.603Z,100385.08
2019-02-18T19:30:27.915Z,100388.94
2019-02-18T19:32:56.324Z,100389.86
2019-02-18T19:35:24.768Z,100380.63
2019-02-18T19:37:54.191Z,100384.85
2019-02-18T19:40:22.691Z,100389.63
2019-02-18T19:42:51.160Z,100382.34
2019-02-18T19:45:24.260Z,100385.80
2019-02-18T19:47:52.863Z,100379.43
2019-02-18T19:50:22.523Z,100384.93
2019-02-18T19:52:50.915Z,100388.39
2019-02-18T19:55:19.435Z,100386.24
2019-02-18T19:57:47.887Z,100388.79
2019-02-18T20:00:18.929Z,100390.94
2019-02-18T20:02:47.478Z,100391.34
2019-02-18T20:05:16.259Z,100390.90
2019-02-18T20:07:44.667Z,100389.63
2019-02-18T20:10:13.991Z,100391.70
2019-02-18T20:12:42.443Z,100391.19
2019-02-18T20:15:13.491Z,100395.75
2019-02-18T20:17:41.955Z,100390.17
2019-02-18T20:20:17.883Z,100385.89
2019-02-18T20:22:46.414Z,100390.94
2019-02-18T20:25:14.899Z,100392.16
2019-02-18T20:27:43.382Z,100393.51
2019-02-18T20:30:16.380Z,100396.18
2019-02-18T20:32:44.851Z,100388.34
2019-02-18T20:35:13.770Z,100389.11
2019-02-18T20:37:42.285Z,100388.59
2019-02-18T20:40:12.209Z,100385.12
2019-02-18T20:42:41.084Z,100394.90
2019-02-18T20:45:12.409Z,100392.08
2019-02-18T20:47:40.837Z,100393.77
2019-02-18T20:50:15.845Z,100392.55
2019-02-18T20:52:44.247Z,100393.45
2019-02-18T20:55:14.223Z,100386.25
2019-02-18T20:57:42.793Z,100385.48
2019-02-18T21:00:17.867Z,100385.48
2019-02-18T21:02:46.755Z,100388.09
2019-02-18T21:05:15.195Z,100388.15
2019-02-18T21:07:43.781Z,100382.20
2019-02-18T21:10:15.361Z,100384.77
2019-02-18T21:12:43.826Z,100377.43
2019-02-18T21:15:12.493Z,100380.03
2019-02-18T21:17:40.922Z,100384.72
2019-02-18T21:20:11.580Z,100379.61
2019-02-18T21:22:40.008Z,100381.00
2019-02-18T21:25:10.186Z,100385.15
2019-02-18T21:27:39.564Z,100386.44
2019-02-18T21:30:11.041Z,100386.70
2019-02-18T21:32:40.028Z,100382.48
2019-02-18T21:35:08.721Z,100384.59
2019-02-18T21:37:37.228Z,100378.32
2019-02-18T21:40:10.293Z,100371.58
2019-02-18T21:42:38.798Z,100370.79
2019-02-18T21:45:10.484Z,100362.36
2019-02-18T21:47:39.378Z,100362.74
2019-02-18T21:50:09.643Z,100361.86
2019-02-18T21:52:38.462Z,100355.49
2019-02-18T21:55:09.132Z,100363.13
2019-02-18T21:57:37.562Z,100363.13
2019-02-18T22:00:21.803Z,100360.51
2019-02-18T22:02:50.732Z,100360.06
2019-02-18T22:05:19.248Z,100360.58
2019-02-18T22:07:48.042Z,100360.15
2019-02-18T22:10:16.570Z,100352.10
2019-02-18T22:12:45.069Z,100355.49
2019-02-18T22:15:14.960Z,100348.73
2019-02-18T22:17:43.799Z,100341.17
2019-02-18T22:20:14.118Z,100345.84
2019-02-18T22:22:42.609Z,100337.81
2019-02-18T22:25:12.532Z,100330.09
2019-02-18T22:27:41.013Z,100321.94
2019-02-18T22:30:14.490Z,100327.98
2019-02-18T22:32:42.973Z,100332.19
2019-02-18T22:35:11.964Z,100341.05
2019-02-18T22:37:40.419Z,100350.77
2019-02-18T22:40:10.671Z,100351.08
2019-02-18T22:42:39.105Z,100348.22
2019-02-18T22:45:09.994Z,100348.27
2019-02-18T22:47:38.400Z,100347.39
2019-02-18T22:50:09.426Z,100340.55
2019-02-18T22:52:37.830Z,100337.10
2019-02-18T22:55:07.783Z,100337.10
2019-02-18T22:57:36.228Z,100335.81
2019-02-18T23:00:10.510Z,100341.76
2019-02-18T23:02:40.525Z,100337.03
2019-02-18T23:05:08.972Z,100331.17
2019-02-18T23:07:37.393Z,100335.97
2019-02-18T23:10:06.959Z,100339.78
2019-02-18T23:12:35.377Z,100332.24
2019-02-18T23:15:04.658Z,100338.95
2019-02-18T23:17:33.082Z,100334.63
2019-02-18T23:20:01.509Z,100323.66
2019-02-18T23:22:30.523Z,100322.30
2019-02-18T23:24:58.945Z,100324.48
2019-02-18T23:27:27.371Z,100329.31
2019-02-18T23:29:55.816Z,100328.98
2019-02-18T23:32:24.245Z,100329.88
2019-02-18T23:34:52.660Z,100324.35
2019-02-18T23:37:21.184Z,100322.75
2019-02-18T23:39:49.589Z,100320.17
2019-02-18T23:42:18.033Z,100325.73
2019-02-18T23:44:46.479Z,100328.24
2019-02-18T23:47:14.880Z,100327.08
2019-02-18T23:49:43.298Z,100323.76
2019-02-18T23:52:11.753Z,100329.71
2019-02-18T23:54:40.158Z,100331.31
2019-02-18T23:57:08.582Z,100331.31
2019-02-18T23:59:37.015Z,100324.66
